createdAt,value
2017-05-30T00:02:05.802Z,25.65
2017-05-30T00:04:32.494Z,26.08
2017-05-30T00:06:59.209Z,26.03
2017-05-30T00:09:25.911Z,25.38
2017-05-30T00:11:52.628Z,24.93
2017-05-30T00:14:19.326Z,26.07
2017-05-30T00:16:46.051Z,25.15
2017-05-30T00:19:12.739Z,25.10
2017-05-30T00:21:39.456Z,26.18
2017-05-30T00:24:06.160Z,23.27
2017-05-30T00:26:32.872Z,26.98
2017-05-30T00:28:59.563Z,26.62
2017-05-30T00:31:26.253Z,26.03
2017-05-30T00:33:52.935Z,26.73
2017-05-30T00:36:19.622Z,27.82
2017-05-30T00:38:46.333Z,28.82
2017-05-30T00:41:13.021Z,28.83
2017-05-30T00:43:39.743Z,27.98
2017-05-30T00:46:06.444Z,29.52
2017-05-30T00:48:33.159Z,27.97
2017-05-30T00:50:59.850Z,29.08
2017-05-30T00:53:26.532Z,27.85
2017-05-30T00:55:53.222Z,30.28
2017-05-30T00:58:19.910Z,29.28
2017-05-30T01:00:46.597Z,29.12
2017-05-30T01:03:13.314Z,29.93
2017-05-30T01:05:40.032Z,32.62
2017-05-30T01:08:06.725Z,28.57
2017-05-30T01:10:33.435Z,29.67
2017-05-30T01:13:00.125Z,30.03
2017-05-30T01:15:26.841Z,32.95
2017-05-30T01:17:53.532Z,35.32
2017-05-30T01:20:20.225Z,34.23
2017-05-30T01:22:46.930Z,34.88
2017-05-30T01:25:13.621Z,36.00
2017-05-30T01:27:40.306Z,35.55
2017-05-30T01:30:06.997Z,36.05
2017-05-30T01:32:33.684Z,36.53
2017-05-30T01:35:00.387Z,37.57
2017-05-30T01:37:27.099Z,39.13
2017-05-30T01:39:53.787Z,37.95
2017-05-30T01:42:20.493Z,39.47
2017-05-30T01:44:47.186Z,40.00
2017-05-30T01:47:13.896Z,40.02
2017-05-30T01:49:40.584Z,44.77
2017-05-30T01:52:07.267Z,42.50
2017-05-30T01:54:33.956Z,41.97
2017-05-30T01:57:00.640Z,45.62
2017-05-30T01:59:27.321Z,44.55
2017-05-30T02:14:45.568Z,45.33
2017-05-30T02:17:12.275Z,45.15
2017-05-30T02:19:38.965Z,45.40
2017-05-30T02:22:05.664Z,47.03
2017-05-30T02:24:32.353Z,48.35
2017-05-30T02:26:59.043Z,46.08
2017-05-30T02:29:25.742Z,47.73
2017-05-30T02:31:52.435Z,45.28
2017-05-30T02:34:19.128Z,45.48
2017-05-30T02:36:45.837Z,48.30
2017-05-30T02:39:12.525Z,48.75
2017-05-30T02:41:39.232Z,47.65
2017-05-30T02:44:06.144Z,45.08
2017-05-30T02:46:32.858Z,46.75
2017-05-30T02:48:59.548Z,44.83
2017-05-30T02:51:26.233Z,47.73
2017-05-30T02:53:52.916Z,49.30
2017-05-30T02:56:19.620Z,48.95
2017-05-30T02:58:46.322Z,46.03
2017-05-30T03:01:13.001Z,52.28
2017-05-30T03:03:39.696Z,49.05
2017-05-30T03:06:06.381Z,52.27
2017-05-30T03:08:33.071Z,50.43
2017-05-30T03:10:59.765Z,50.60
2017-05-30T03:13:26.493Z,50.98
2017-05-30T03:15:53.187Z,49.47
2017-05-30T03:18:19.871Z,50.05
2017-05-30T03:20:46.556Z,54.00
2017-05-30T03:23:13.241Z,50.65
2017-05-30T03:25:39.928Z,48.68
2017-05-30T03:28:06.613Z,52.87
2017-05-30T03:30:33.316Z,51.98
2017-05-30T03:33:00.000Z,54.10
2017-05-30T03:35:26.717Z,54.60
2017-05-30T03:37:53.404Z,55.17
2017-05-30T03:40:20.102Z,55.02
2017-05-30T03:42:46.840Z,54.07
2017-05-30T03:45:13.536Z,56.65
2017-05-30T03:47:40.255Z,58.32
2017-05-30T03:50:06.948Z,55.90
2017-05-30T03:52:33.660Z,55.17
2017-05-30T03:55:00.372Z,52.95
2017-05-30T03:57:27.085Z,53.97
2017-05-30T03:59:53.779Z,51.43
2017-05-30T04:02:20.497Z,50.78
2017-05-30T04:04:47.184Z,51.05
2017-05-30T04:07:13.922Z,48.57
2017-05-30T04:09:40.620Z,48.13
2017-05-30T04:12:07.307Z,48.03
2017-05-30T04:14:34.004Z,45.73
2017-05-30T04:17:00.684Z,48.76
2017-05-30T04:19:27.401Z,47.47
2017-05-30T04:21:54.089Z,46.26
2017-05-30T04:24:20.801Z,48.10
2017-05-30T04:26:47.492Z,44.06
2017-05-30T04:29:14.209Z,45.10
2017-05-30T04:31:40.892Z,44.90
2017-05-30T04:34:07.612Z,45.78
2017-05-30T04:36:34.297Z,42.76
2017-05-30T04:39:00.976Z,44.86
2017-05-30T04:41:27.654Z,43.20
2017-05-30T04:43:54.336Z,42.80
2017-05-30T04:46:21.037Z,42.66
2017-05-30T04:48:47.732Z,42.20
2017-05-30T04:51:14.437Z,43.16
2017-05-30T04:53:41.117Z,40.16
2017-05-30T04:56:07.816Z,40.86
2017-05-30T04:58:34.500Z,41.16
2017-05-30T05:01:01.216Z,39.42
2017-05-30T05:03:27.897Z,40.06
2017-05-30T05:05:54.576Z,38.96
2017-05-30T05:08:21.260Z,40.58
2017-05-30T05:10:47.939Z,37.64
2017-05-30T05:13:14.628Z,37.26
2017-05-30T05:15:41.309Z,36.68
2017-05-30T05:18:08.013Z,37.36
2017-05-30T05:20:34.700Z,35.52
2017-05-30T05:23:01.408Z,36.66
2017-05-30T05:25:28.097Z,36.88
2017-05-30T05:27:54.808Z,37.82
2017-05-30T05:30:21.517Z,37.46
2017-05-30T05:32:48.230Z,36.70
2017-05-30T05:35:14.939Z,35.30
2017-05-30T05:37:41.627Z,35.78
2017-05-30T05:40:09.024Z,35.14
2017-05-30T05:42:35.709Z,37.20
2017-05-30T05:45:02.394Z,36.94
2017-05-30T05:47:29.100Z,34.82
2017-05-30T05:49:55.809Z,36.68
2017-05-30T05:52:22.500Z,36.22
2017-05-30T05:54:49.209Z,34.40
2017-05-30T05:57:15.895Z,34.24
2017-05-30T05:59:42.619Z,35.44
2017-05-30T06:02:09.299Z,36.60
2017-05-30T06:04:36.704Z,36.84
2017-05-30T06:07:03.386Z,36.52
2017-05-30T06:09:30.064Z,40.74
2017-05-30T06:11:56.749Z,50.20
2017-05-30T06:14:23.442Z,44.44
2017-05-30T06:16:50.120Z,43.38
2017-05-30T06:19:16.813Z,42.04
2017-05-30T06:21:43.521Z,37.30
2017-05-30T06:24:10.209Z,37.58
2017-05-30T06:26:36.926Z,37.54
2017-05-30T06:29:03.649Z,34.28
2017-05-30T06:31:30.377Z,37.60
2017-05-30T06:33:57.073Z,37.72
2017-05-30T06:36:23.761Z,39.94
2017-05-30T06:38:50.444Z,36.64
2017-05-30T06:41:17.124Z,35.48
2017-05-30T06:43:43.801Z,35.82
2017-05-30T06:46:10.497Z,34.44
2017-05-30T06:48:37.181Z,35.66
2017-05-30T06:51:03.869Z,36.94
2017-05-30T06:53:30.581Z,34.38
2017-05-30T06:55:57.265Z,36.66
2017-05-30T06:58:23.981Z,37.80
2017-05-30T07:00:50.666Z,38.24
2017-05-30T07:03:17.376Z,39.62
2017-05-30T07:05:44.064Z,44.94
2017-05-30T07:08:10.736Z,46.18
2017-05-30T07:10:37.417Z,47.80
2017-05-30T07:13:04.106Z,47.68
2017-05-30T07:15:30.792Z,50.12
2017-05-30T07:17:57.478Z,48.82
2017-05-30T07:20:24.192Z,49.80
2017-05-30T07:22:50.877Z,44.76
2017-05-30T07:25:17.559Z,42.72
2017-05-30T07:27:44.502Z,46.58
2017-05-30T07:30:11.184Z,45.68
2017-05-30T07:32:37.892Z,47.38
2017-05-30T07:35:04.582Z,51.32
2017-05-30T07:37:31.291Z,46.84
2017-05-30T07:39:57.979Z,48.92
2017-05-30T07:42:24.687Z,47.80
2017-05-30T07:44:51.381Z,49.14
2017-05-30T07:47:18.073Z,52.52
2017-05-30T07:49:44.753Z,52.54
2017-05-30T07:52:11.437Z,49.58
2017-05-30T07:54:38.174Z,51.60
2017-05-30T07:57:04.880Z,52.76
2017-05-30T07:59:31.608Z,51.14
2017-05-30T08:01:58.293Z,52.86
2017-05-30T08:04:25.018Z,49.64
2017-05-30T08:06:51.704Z,50.44
2017-05-30T08:09:18.394Z,51.02
2017-05-30T08:11:45.096Z,49.88
2017-05-30T08:14:11.779Z,48.62
2017-05-30T08:16:38.465Z,44.00
2017-05-30T08:19:05.153Z,47.66
2017-05-30T08:21:31.865Z,47.94
2017-05-30T08:23:58.562Z,46.12
2017-05-30T08:26:25.295Z,45.98
2017-05-30T08:28:51.973Z,45.40
2017-05-30T08:31:18.685Z,47.22
2017-05-30T08:33:45.378Z,42.68
2017-05-30T08:36:12.103Z,45.58
2017-05-30T08:38:38.800Z,38.10
2017-05-30T08:41:05.488Z,38.48
2017-05-30T08:43:32.181Z,37.34
2017-05-30T08:45:58.872Z,31.86
2017-05-30T08:48:25.564Z,30.98
2017-05-30T08:50:52.257Z,31.48
2017-05-30T08:53:18.976Z,33.66
2017-05-30T08:55:45.682Z,30.62
2017-05-30T08:58:12.391Z,34.78
2017-05-30T09:00:39.088Z,32.22
2017-05-30T09:03:05.805Z,32.00
2017-05-30T09:05:32.492Z,30.56
2017-05-30T09:07:59.181Z,31.42
2017-05-30T09:10:25.869Z,30.26
2017-05-30T09:12:52.566Z,28.00
2017-05-30T09:15:19.248Z,29.06
2017-05-30T09:17:45.938Z,26.78
2017-05-30T09:20:12.648Z,28.88
2017-05-30T09:22:39.332Z,26.88
2017-05-30T09:25:06.054Z,26.92
2017-05-30T09:27:32.743Z,28.26
2017-05-30T09:29:59.457Z,24.22
2017-05-30T09:32:26.158Z,22.44
2017-05-30T09:34:52.858Z,19.24
2017-05-30T09:37:19.542Z,17.00
2017-05-30T09:39:46.239Z,19.38
2017-05-30T09:42:12.929Z,21.44
2017-05-30T09:44:39.608Z,20.26
2017-05-30T09:47:06.315Z,20.70
2017-05-30T09:49:32.993Z,18.36
2017-05-30T09:51:59.711Z,21.16
2017-05-30T09:54:26.394Z,17.58
2017-05-30T09:56:53.078Z,17.86
2017-05-30T09:59:19.756Z,17.60
2017-05-30T10:01:46.441Z,18.50
2017-05-30T10:04:13.122Z,19.90
2017-05-30T10:06:39.816Z,19.98
2017-05-30T10:09:06.496Z,19.92
2017-05-30T10:11:33.172Z,20.76
2017-05-30T10:13:59.860Z,24.70
2017-05-30T10:16:26.539Z,20.18
2017-05-30T10:18:53.236Z,22.50
2017-05-30T10:21:19.924Z,20.66
2017-05-30T10:23:46.646Z,21.36
2017-05-30T10:26:13.323Z,21.74
2017-05-30T10:28:39.996Z,24.76
2017-05-30T10:31:06.704Z,25.02
2017-05-30T10:33:33.379Z,24.38
2017-05-30T10:36:00.065Z,23.00
2017-05-30T10:38:26.736Z,26.30
2017-05-30T10:40:53.408Z,24.60
2017-05-30T10:43:20.087Z,22.48
2017-05-30T10:45:46.764Z,24.20
2017-05-30T10:48:13.437Z,22.68
2017-05-30T10:50:40.140Z,27.56
2017-05-30T10:53:07.039Z,22.62
2017-05-30T10:55:33.723Z,24.98
2017-05-30T10:58:00.400Z,22.72
2017-05-30T11:00:27.080Z,22.50
2017-05-30T11:02:53.777Z,23.50
2017-05-30T11:05:20.456Z,18.92
2017-05-30T11:07:47.136Z,19.24
2017-05-30T11:10:13.812Z,18.56
2017-05-30T11:12:40.519Z,20.06
2017-05-30T11:15:07.197Z,19.80
2017-05-30T11:17:33.881Z,18.26
2017-05-30T11:20:00.556Z,16.14
2017-05-30T11:22:27.228Z,15.76
2017-05-30T11:24:53.908Z,15.82
2017-05-30T11:27:20.580Z,16.22
2017-05-30T11:29:47.255Z,17.70
2017-05-30T11:32:13.936Z,19.42
2017-05-30T11:34:40.608Z,18.84
2017-05-30T11:37:07.276Z,19.18
2017-05-30T11:39:33.953Z,18.88
2017-05-30T11:42:00.623Z,19.70
2017-05-30T11:44:27.299Z,16.98
2017-05-30T11:46:53.995Z,16.04
2017-05-30T11:49:20.682Z,15.50
2017-05-30T11:51:47.380Z,14.60
2017-05-30T11:54:14.051Z,15.20
2017-05-30T11:56:40.769Z,14.95
2017-05-30T11:59:07.440Z,15.12
2017-05-30T12:01:34.168Z,14.58
2017-05-30T12:04:00.839Z,16.12
2017-05-30T12:06:27.516Z,15.74
2017-05-30T12:08:54.191Z,16.22
2017-05-30T12:11:20.876Z,14.62
2017-05-30T12:13:47.571Z,13.64
2017-05-30T12:16:14.247Z,12.50
2017-05-30T12:18:41.811Z,13.18
2017-05-30T12:21:08.492Z,12.88
2017-05-30T12:23:35.188Z,12.22
2017-05-30T12:26:01.864Z,10.86
2017-05-30T12:28:28.575Z,10.50
2017-05-30T12:30:55.252Z,10.92
2017-05-30T12:33:21.923Z,10.88
2017-05-30T12:35:48.604Z,10.58
2017-05-30T12:38:15.280Z,10.62
2017-05-30T12:40:41.984Z,10.64
2017-05-30T12:43:08.654Z,9.50
2017-05-30T12:45:35.355Z,10.56
2017-05-30T12:48:02.032Z,10.94
2017-05-30T12:50:28.731Z,9.14
2017-05-30T12:52:55.404Z,10.10
2017-05-30T12:55:22.107Z,9.82
2017-05-30T12:57:48.776Z,9.76
2017-05-30T13:00:15.455Z,10.10
2017-05-30T13:02:42.144Z,9.12
2017-05-30T13:05:08.816Z,9.70
2017-05-30T13:07:35.521Z,9.78
2017-05-30T13:10:02.192Z,10.54
2017-05-30T13:12:28.902Z,10.96
2017-05-30T13:14:55.564Z,8.92
2017-05-30T13:17:22.271Z,10.40
2017-05-30T13:19:48.948Z,10.34
2017-05-30T13:22:15.655Z,10.28
2017-05-30T13:24:42.341Z,10.26
2017-05-30T13:27:09.020Z,10.00
2017-05-30T13:29:35.693Z,9.90
2017-05-30T13:32:02.372Z,9.64
2017-05-30T13:34:29.052Z,10.36
2017-05-30T13:36:55.730Z,11.48
2017-05-30T13:39:22.436Z,11.22
2017-05-30T13:41:49.348Z,10.40
2017-05-30T13:44:16.045Z,9.70
2017-05-30T13:46:42.724Z,10.98
2017-05-30T13:49:09.432Z,10.86
2017-05-30T13:51:36.109Z,10.90
2017-05-30T13:54:02.780Z,9.60
2017-05-30T13:56:29.460Z,10.30
2017-05-30T13:58:56.135Z,10.30
2017-05-30T14:01:22.814Z,10.32
2017-05-30T14:03:49.493Z,9.92
2017-05-30T14:06:16.204Z,9.88
2017-05-30T14:08:42.883Z,9.92
2017-05-30T14:11:09.580Z,10.46
2017-05-30T14:13:36.244Z,8.92
2017-05-30T14:16:02.949Z,9.98
2017-05-30T14:18:29.631Z,10.86
2017-05-30T14:20:56.300Z,13.48
2017-05-30T14:23:22.980Z,16.92
2017-05-30T14:25:49.665Z,17.14
2017-05-30T14:28:16.361Z,19.10
2017-05-30T14:30:43.044Z,18.22
2017-05-30T14:33:09.940Z,19.50
2017-05-30T14:35:36.615Z,21.04
2017-05-30T14:38:03.333Z,24.56
2017-05-30T14:40:30.008Z,22.96
2017-05-30T14:42:56.689Z,22.70
2017-05-30T14:45:23.373Z,24.86
2017-05-30T14:47:50.057Z,24.26
2017-05-30T14:50:16.736Z,21.82
2017-05-30T14:52:43.420Z,24.40
2017-05-30T14:55:10.122Z,23.16
2017-05-30T14:57:36.801Z,23.02
2017-05-30T15:00:03.540Z,24.46
2017-05-30T15:02:30.222Z,22.94
2017-05-30T15:04:56.912Z,24.76
2017-05-30T15:07:23.639Z,26.10
2017-05-30T15:09:50.336Z,26.00
2017-05-30T15:12:17.019Z,26.52
2017-05-30T15:14:43.721Z,26.18
2017-05-30T15:17:10.395Z,28.68
2017-05-30T15:19:37.077Z,26.38
2017-05-30T15:22:03.808Z,27.14
2017-05-30T15:24:30.505Z,27.56
2017-05-30T15:26:57.190Z,25.90
2017-05-30T15:29:23.872Z,26.06
2017-05-30T15:31:50.559Z,29.72
2017-05-30T15:34:17.245Z,24.84
2017-05-30T15:36:43.921Z,28.02
2017-05-30T15:39:10.656Z,29.10
2017-05-30T15:41:37.352Z,30.48
2017-05-30T15:44:04.035Z,27.46
2017-05-30T15:46:30.721Z,29.08
2017-05-30T15:48:57.440Z,28.24
2017-05-30T15:51:24.123Z,28.78
2017-05-30T15:53:50.812Z,26.52
2017-05-30T15:56:17.497Z,26.04
2017-05-30T15:58:44.190Z,27.76
2017-05-30T16:01:10.896Z,26.78
2017-05-30T16:03:37.574Z,25.62
2017-05-30T16:06:04.267Z,25.56
2017-05-30T16:08:30.946Z,24.34
2017-05-30T16:10:57.649Z,27.04
2017-05-30T16:13:24.324Z,26.12
2017-05-30T16:15:51.029Z,24.30
2017-05-30T16:18:17.709Z,25.90
2017-05-30T16:20:44.447Z,27.62
2017-05-30T16:23:11.140Z,27.92
2017-05-30T16:25:37.816Z,26.62
2017-05-30T16:28:04.512Z,28.72
2017-05-30T16:30:31.216Z,27.40
2017-05-30T16:32:57.934Z,28.04
2017-05-30T16:35:24.627Z,28.70
2017-05-30T16:37:51.344Z,26.74
2017-05-30T16:40:18.023Z,27.24
2017-05-30T16:42:44.736Z,26.88
2017-05-30T16:45:11.432Z,27.08
2017-05-30T16:47:38.170Z,25.24
2017-05-30T16:50:04.875Z,24.18
2017-05-30T16:52:31.557Z,26.84
2017-05-30T16:54:58.240Z,25.66
2017-05-30T16:57:24.932Z,26.40
2017-05-30T16:59:51.655Z,25.02
2017-05-30T17:02:18.342Z,24.40
2017-05-30T17:04:45.060Z,25.80
2017-05-30T17:07:11.784Z,22.48
2017-05-30T17:09:38.490Z,21.80
2017-05-30T17:12:05.172Z,22.52
2017-05-30T17:14:31.912Z,23.16
2017-05-30T17:16:58.589Z,22.18
2017-05-30T17:19:25.272Z,20.88
2017-05-30T17:21:51.953Z,21.90
2017-05-30T17:24:18.643Z,20.78
2017-05-30T17:26:45.340Z,21.76
2017-05-30T17:29:12.025Z,21.46
2017-05-30T17:31:38.728Z,19.34
2017-05-30T17:34:05.412Z,18.88
2017-05-30T17:36:32.146Z,20.48
2017-05-30T17:38:58.825Z,20.52
2017-05-30T17:41:25.533Z,20.16
2017-05-30T17:43:52.238Z,21.20
2017-05-30T17:46:18.921Z,22.78
2017-05-30T17:48:45.601Z,22.04
2017-05-30T17:51:12.284Z,23.32
2017-05-30T17:53:38.967Z,25.58
2017-05-30T17:56:05.645Z,23.74
2017-05-30T17:58:32.384Z,25.02
2017-05-30T18:00:59.068Z,27.94
2017-05-30T18:03:25.796Z,27.65
2017-05-30T18:05:52.521Z,26.62
2017-05-30T18:08:19.259Z,25.32
2017-05-30T18:10:45.948Z,26.23
2017-05-30T18:13:12.633Z,24.98
2017-05-30T18:15:39.320Z,26.77
2017-05-30T18:18:06.013Z,27.78
2017-05-30T18:20:32.696Z,27.20
2017-05-30T18:22:59.412Z,29.62
2017-05-30T18:25:26.124Z,27.28
2017-05-30T18:27:52.815Z,30.40
2017-05-30T18:30:19.528Z,29.90
2017-05-30T18:32:46.212Z,30.18
2017-05-30T18:35:12.888Z,28.27
2017-05-30T18:37:39.568Z,28.65
2017-05-30T18:40:06.248Z,28.38
2017-05-30T18:42:32.932Z,28.23
2017-05-30T18:44:59.628Z,28.77
2017-05-30T18:47:26.324Z,29.28
2017-05-30T18:49:53.009Z,30.12
2017-05-30T18:52:19.714Z,30.30
2017-05-30T18:54:46.392Z,32.17
2017-05-30T18:57:13.112Z,29.52
2017-05-30T18:59:39.795Z,28.73
2017-05-30T19:02:06.505Z,31.03
2017-05-30T19:04:33.185Z,31.90
2017-05-30T19:06:59.872Z,30.53
2017-05-30T19:09:26.562Z,29.78
2017-05-30T19:11:53.250Z,30.20
2017-05-30T19:14:19.974Z,30.42
2017-05-30T19:16:46.668Z,31.22
2017-05-30T19:19:13.445Z,31.58
2017-05-30T19:21:40.135Z,30.15
2017-05-30T19:24:06.817Z,29.13
2017-05-30T19:26:33.511Z,32.12
2017-05-30T19:29:00.222Z,29.50
2017-05-30T19:31:26.936Z,30.43
2017-05-30T19:33:53.652Z,30.45
2017-05-30T19:36:20.344Z,30.85
2017-05-30T19:38:47.033Z,30.38
2017-05-30T19:41:13.750Z,31.27
2017-05-30T19:43:40.444Z,30.72
2017-05-30T19:46:07.139Z,29.03
2017-05-30T19:48:33.830Z,30.53
2017-05-30T19:51:00.578Z,32.58
2017-05-30T19:53:27.274Z,28.75
2017-05-30T19:55:53.974Z,31.87
2017-05-30T19:58:20.705Z,30.92
2017-05-30T20:00:47.425Z,28.93
2017-05-30T20:03:14.128Z,25.58
2017-05-30T20:05:40.809Z,23.05
2017-05-30T20:08:07.516Z,18.95
2017-05-30T20:10:34.196Z,16.55
2017-05-30T20:13:00.953Z,15.05
2017-05-30T20:15:27.651Z,14.27
2017-05-30T20:17:54.332Z,13.88
2017-05-30T20:20:21.026Z,13.52
2017-05-30T20:22:47.717Z,13.62
2017-05-30T20:25:14.436Z,14.10
2017-05-30T20:27:41.121Z,12.78
2017-05-30T20:30:07.847Z,13.50
2017-05-30T20:32:34.536Z,13.23
2017-05-30T20:35:01.257Z,14.15
2017-05-30T20:37:27.961Z,13.37
2017-05-30T20:39:54.644Z,12.83
2017-05-30T20:42:21.331Z,11.58
2017-05-30T20:44:48.012Z,11.92
2017-05-30T20:47:14.719Z,12.82
2017-05-30T20:49:41.436Z,12.22
2017-05-30T20:52:08.169Z,12.75
2017-05-30T20:54:34.855Z,12.85
2017-05-30T20:57:01.593Z,13.05
2017-05-30T20:59:28.312Z,12.70
2017-05-30T21:01:55.025Z,13.13
2017-05-30T21:04:21.712Z,13.25
2017-05-30T21:06:48.400Z,13.45
2017-05-30T21:09:15.080Z,12.93
2017-05-30T21:11:41.764Z,13.60
2017-05-30T21:14:08.470Z,12.45
2017-05-30T21:16:35.193Z,13.22
2017-05-30T21:19:01.912Z,14.23
2017-05-30T21:21:28.632Z,14.30
2017-05-30T21:23:55.368Z,13.15
2017-05-30T21:26:22.048Z,13.10
2017-05-30T21:28:48.762Z,14.27
2017-05-30T21:31:15.473Z,14.17
2017-05-30T21:33:42.168Z,14.03
2017-05-30T21:36:08.840Z,15.70
2017-05-30T21:38:35.524Z,14.57
2017-05-30T21:41:02.209Z,14.52
2017-05-30T21:43:28.913Z,14.30
2017-05-30T21:45:55.604Z,12.63
2017-05-30T21:48:22.287Z,11.93
2017-05-30T21:50:49.080Z,10.13
2017-05-30T21:53:15.768Z,10.63
2017-05-30T21:55:42.483Z,11.23
2017-05-30T21:58:09.168Z,10.28
2017-05-30T22:00:35.906Z,10.82
2017-05-30T22:03:02.597Z,10.27
2017-05-30T22:05:29.284Z,9.92
2017-05-30T22:07:55.964Z,9.72
2017-05-30T22:10:22.671Z,8.57
2017-05-30T22:12:49.361Z,8.28
2017-05-30T22:15:16.056Z,9.58
2017-05-30T22:17:42.800Z,9.75
2017-05-30T22:20:09.551Z,9.10
2017-05-30T22:22:36.228Z,9.20
2017-05-30T22:25:02.921Z,9.58
2017-05-30T22:27:29.603Z,9.45
2017-05-30T22:29:56.288Z,10.78
2017-05-30T22:32:22.964Z,11.33
2017-05-30T22:34:49.660Z,11.62
2017-05-30T22:37:16.336Z,11.37
2017-05-30T22:39:43.012Z,11.88
2017-05-30T22:42:09.716Z,12.75
2017-05-30T22:44:36.435Z,12.28
2017-05-30T22:47:03.125Z,12.82
2017-05-30T22:49:29.804Z,12.97
2017-05-30T22:51:56.501Z,13.48
2017-05-30T22:54:23.184Z,14.27
2017-05-30T22:56:49.885Z,13.77
2017-05-30T22:59:16.575Z,13.50
2017-05-30T23:01:43.282Z,15.93
2017-05-30T23:04:09.970Z,15.98
2017-05-30T23:06:36.651Z,16.17
2017-05-30T23:09:03.372Z,18.18
2017-05-30T23:11:30.089Z,18.92
2017-05-30T23:13:56.795Z,19.48
2017-05-30T23:16:23.468Z,20.37
2017-05-30T23:18:50.146Z,19.80
2017-05-30T23:21:16.841Z,20.60
2017-05-30T23:23:43.560Z,19.87
2017-05-30T23:26:10.257Z,20.53
2017-05-30T23:28:36.980Z,18.77
2017-05-30T23:31:03.660Z,16.45
2017-05-30T23:33:30.342Z,15.50
2017-05-30T23:35:57.022Z,14.97
2017-05-30T23:38:23.725Z,14.70
2017-05-30T23:40:50.410Z,12.92
2017-05-30T23:43:17.120Z,13.18
2017-05-30T23:45:43.843Z,12.48
2017-05-30T23:48:10.528Z,12.92
2017-05-30T23:50:37.208Z,13.82
2017-05-30T23:53:03.915Z,13.48
2017-05-30T23:55:30.592Z,13.13
2017-05-30T23:57:57.296Z,12.65
